sim
Sign-in with your pilot id or email,
or register
Callsign
Passwort

Schedule Details

Flight Number: DLH1801
Departure: Madrid Barajas Airport (LEMD) at 11:05
Arrival: Munich Airport (EDDM) at 13:40
Route: Lufthansa Passenger Schedule. Enter filed route here before submitting Pirep.

Weather Information
Getting current METAR information for LEMD 260900Z VRB02KT CAVOK 13/04 Q1022 NOSIG
Getting current METAR information for EDDM 260920Z 26022G32KT 9999 -DZRA SCT017 BKN025 08/04 Q1000 NOSIG

Schedule Frequency

Route Map